Time;durP1;ratioP1;P1;durP2;ratioP2;P2;SDS_P1;SDS_P2;PMS_P1;PMS_P2;Temp;Humidity;BMP_temperature;BMP_pressure;BME280_temperature;BME280_humidity;BME280_pressure;Samples;Min_cycle;Max_cycle;Signal;HPM_P1;HPM_P2
2021/01/23 00:48:32;;;;;;;11.57;8.83;;;5.10;87.00;;;;;;5365159;22;20677;-77
2021/01/23 00:51:23;;;;;;;12.47;9.17;;;4.90;88.90;;;;;;5036790;28;20646;-77
2021/01/23 00:54:06;;;;;;;13.17;9.77;;;4.80;88.90;;;;;;5035413;28;20278;-77
2021/01/23 01:05:09;;;;;;;12.47;10.13;;;4.70;90.60;;;;;;6058986;22;20157;-78
2021/01/23 01:07:35;;;;;;;13.77;10.10;;;4.70;90.90;;;;;;5015653;28;20630;-78
2021/01/23 01:37:50;;;;;;;14.43;11.13;;;5.00;92.80;;;;;;5015855;28;20198;-79
2021/01/23 01:40:22;;;;;;;15.27;11.83;;;5.00;93.50;;;;;;5014500;28;20207;-78
2021/01/23 03:40:15;;;;;;;0.90;0.90;;;2.40;98.90;;;;;;5069578;23;20238;-78
2021/01/23 03:42:42;;;;;;;0.70;0.70;;;2.20;99.00;;;;;;5036493;28;20188;-78
2021/01/23 03:45:15;;;;;;;0.83;0.83;;;2.30;99.70;;;;;;5034319;28;20627;-78
2021/01/23 03:47:41;;;;;;;0.93;0.87;;;2.20;99.30;;;;;;5027985;28;20641;-78
2021/01/23 03:50:09;;;;;;;1.00;0.90;;;2.20;99.70;;;;;;5026060;28;20209;-81
2021/01/23 03:52:37;;;;;;;1.23;1.13;;;2.10;99.60;;;;;;5026009;28;20197;-81
2021/01/23 03:55:04;;;;;;;1.00;1.00;;;2.10;99.90;;;;;;5024297;28;20199;-79
2021/01/23 03:57:31;;;;;;;1.00;1.00;;;2.20;99.90;;;;;;5026205;28;20205;-82
2021/01/23 03:59:58;;;;;;;1.20;1.10;;;2.20;99.60;;;;;;5032325;28;20286;-81
2021/01/23 04:02:24;;;;;;;1.20;1.10;;;2.20;99.60;;;;;;5031154;28;20213;-80
2021/01/23 04:04:50;;;;;;;1.50;1.20;;;2.10;99.60;;;;;;5025473;28;20284;-78
2021/01/23 04:07:17;;;;;;;0.93;0.93;;;2.20;99.60;;;;;;5027894;28;20494;-78
2021/01/23 04:09:43;;;;;;;1.10;1.00;;;2.20;99.90;;;;;;5024335;28;20209;-79
2021/01/23 04:12:09;;;;;;;0.67;0.67;;;2.20;99.80;;;;;;5030053;28;20226;-80
2021/01/23 04:14:36;;;;;;;1.17;1.10;;;2.20;99.60;;;;;;5024850;28;20784;-85
2021/01/23 04:17:03;;;;;;;0.80;0.80;;;2.20;99.90;;;;;;5022630;28;20693;-76
2021/01/23 04:19:29;;;;;;;0.90;0.90;;;2.20;99.60;;;;;;5031190;28;20698;-82
2021/01/23 04:21:55;;;;;;;0.80;0.80;;;2.10;99.60;;;;;;5030553;28;20221;-82
2021/01/23 04:24:22;;;;;;;0.73;0.73;;;2.10;99.70;;;;;;5023032;28;20198;-82
2021/01/23 04:26:48;;;;;;;1.27;1.00;;;2.00;99.60;;;;;;5028084;28;20764;-80
2021/01/23 04:29:14;;;;;;;1.00;0.80;;;2.10;99.60;;;;;;5034879;28;20216;-78
2021/01/23 04:31:41;;;;;;;1.20;1.20;;;2.00;99.90;;;;;;5030279;28;20558;-81
2021/01/23 04:34:08;;;;;;;0.73;0.70;;;2.00;99.60;;;;;;5031115;28;20201;-78
2021/01/23 04:36:34;;;;;;;0.80;0.80;;;2.10;99.60;;;;;;5025712;28;20222;-81
2021/01/23 04:39:00;;;;;;;0.70;0.70;;;2.20;99.70;;;;;;5025069;28;20696;-82
2021/01/23 04:41:30;;;;;;;0.80;0.80;;;2.20;99.60;;;;;;5027557;28;20236;-78
2021/01/23 04:43:57;;;;;;;1.37;0.60;;;2.10;99.60;;;;;;5034315;28;20283;-80
2021/01/23 04:46:23;;;;;;;1.33;0.77;;;2.10;99.60;;;;;;5026224;28;20245;-81
2021/01/23 04:48:51;;;;;;;0.70;0.70;;;2.00;99.60;;;;;;5032580;28;20219;-78
2021/01/23 04:51:17;;;;;;;0.57;0.57;;;2.10;99.80;;;;;;5029450;28;20235;-84
2021/01/23 04:53:46;;;;;;;0.63;0.63;;;2.00;99.60;;;;;;5023183;28;20618;-79
2021/01/23 04:56:12;;;;;;;0.70;0.70;;;2.00;99.60;;;;;;5032048;28;20231;-81
2021/01/23 04:58:39;;;;;;;0.77;0.77;;;1.90;99.60;;;;;;5027928;28;20224;-80
2021/01/23 05:01:06;;;;;;;0.87;0.87;;;1.90;99.90;;;;;;5020843;28;20261;-87
2021/01/23 05:03:54;;;;;;;1.50;1.00;;;1.90;99.80;;;;;;5029594;28;20201;-88
2021/01/23 05:06:20;;;;;;;0.70;0.70;;;2.00;99.60;;;;;;5018024;28;20228;-82
2021/01/23 05:08:46;;;;;;;0.80;0.80;;;1.90;99.60;;;;;;5022010;28;20200;-79
2021/01/23 05:11:13;;;;;;;0.67;0.67;;;1.80;99.60;;;;;;5022794;28;20227;-78
2021/01/23 05:13:39;;;;;;;0.90;0.90;;;1.80;99.90;;;;;;5022234;28;20230;-84
2021/01/23 05:16:24;;;;;;;0.97;0.70;;;1.70;99.90;;;;;;5029028;28;20723;-78
2021/01/23 05:18:56;;;;;;;0.77;0.70;;;1.80;99.90;;;;;;5022864;28;20597;-81
2021/01/23 05:21:25;;;;;;;1.23;0.73;;;1.70;99.90;;;;;;5031679;28;20233;-80
2021/01/23 05:24:03;;;;;;;0.80;0.80;;;1.70;99.90;;;;;;5028038;28;20428;-80
2021/01/23 05:26:30;;;;;;;0.70;0.70;;;1.70;99.90;;;;;;5024963;28;20224;-80
2021/01/23 05:29:14;;;;;;;0.80;0.80;;;1.70;99.90;;;;;;5027894;28;20207;-80
2021/01/23 05:31:43;;;;;;;1.20;1.00;;;1.70;99.90;;;;;;5027336;28;20254;-81
2021/01/23 05:34:29;;;;;;;0.80;0.80;;;1.70;99.90;;;;;;5026227;28;20277;-79
2021/01/23 05:36:56;;;;;;;0.80;0.80;;;1.70;99.90;;;;;;5023645;28;20230;-82
2021/01/23 05:39:42;;;;;;;1.00;1.00;;;1.80;99.90;;;;;;5029400;28;20707;-80
2021/01/23 05:42:09;;;;;;;0.70;0.70;;;1.90;99.90;;;;;;5024167;28;20218;-78
2021/01/23 05:44:35;;;;;;;0.70;0.70;;;1.90;99.90;;;;;;5029140;28;20207;-81
2021/01/23 05:47:01;;;;;;;0.70;0.70;;;1.90;99.90;;;;;;5028828;28;20228;-81
2021/01/23 05:49:28;;;;;;;0.80;0.80;;;1.90;99.90;;;;;;5019914;28;20208;-80
2021/01/23 05:51:55;;;;;;;0.80;0.80;;;1.90;99.90;;;;;;5018207;28;20239;-80
2021/01/23 05:54:23;;;;;;;0.70;0.70;;;1.90;99.90;;;;;;5025619;28;20335;-85
2021/01/23 05:56:49;;;;;;;1.20;1.20;;;1.80;99.90;;;;;;5029635;28;20310;-82
2021/01/23 05:59:16;;;;;;;0.83;0.83;;;1.70;99.90;;;;;;5019996;28;20228;-81
2021/01/23 06:01:42;;;;;;;2.70;1.10;;;1.80;99.90;;;;;;5023102;28;20240;-80
2021/01/23 06:04:14;;;;;;;1.10;1.00;;;1.80;99.90;;;;;;5026106;28;20197;-79
2021/01/23 06:06:45;;;;;;;0.80;0.80;;;1.80;99.90;;;;;;5026690;28;20227;-79
2021/01/23 06:09:34;;;;;;;1.90;1.47;;;1.80;99.90;;;;;;5025339;28;20573;-85
2021/01/23 06:12:00;;;;;;;0.80;0.80;;;1.80;99.90;;;;;;5025842;28;20227;-80
2021/01/23 06:14:37;;;;;;;1.00;1.00;;;1.90;99.90;;;;;;5026133;28;20815;-81
2021/01/23 06:17:03;;;;;;;1.17;1.17;;;2.00;99.80;;;;;;5026103;28;20231;-81
2021/01/23 06:19:40;;;;;;;1.10;1.00;;;1.90;99.90;;;;;;5026939;28;20227;-81
2021/01/23 06:22:08;;;;;;;1.57;1.47;;;2.00;99.90;;;;;;5024214;28;20222;-79
2021/01/23 06:24:54;;;;;;;1.20;1.20;;;2.00;99.90;;;;;;5025601;28;21267;-79
2021/01/23 06:27:21;;;;;;;1.10;1.10;;;2.00;99.90;;;;;;5026743;28;20605;-82
2021/01/23 06:29:48;;;;;;;1.70;1.60;;;2.00;99.60;;;;;;5024255;28;20217;-78
2021/01/23 06:32:28;;;;;;;1.53;1.10;;;2.00;99.60;;;;;;5022701;28;20723;-85
2021/01/23 06:34:56;;;;;;;1.50;1.40;;;2.00;99.60;;;;;;5021399;28;20199;-78
2021/01/23 06:37:29;;;;;;;1.00;1.00;;;1.90;99.90;;;;;;5024046;28;20681;-79
2021/01/23 06:40:28;;;;;;;3.30;1.10;;;2.00;99.60;;;;;;5023996;28;20229;-82
2021/01/23 06:42:55;;;;;;;1.67;1.57;;;2.00;99.60;;;;;;4981388;28;20317;-83
2021/01/23 06:45:24;;;;;;;1.43;1.23;;;1.90;99.80;;;;;;5025060;28;20234;-85
2021/01/23 06:47:52;;;;;;;1.10;1.10;;;1.90;99.60;;;;;;5025953;28;20659;-80
2021/01/23 06:50:31;;;;;;;1.20;1.20;;;2.00;99.90;;;;;;5026746;28;20662;-78
2021/01/23 06:52:58;;;;;;;1.33;1.23;;;2.00;99.60;;;;;;5022313;28;20379;-80
2021/01/23 06:55:51;;;;;;;1.30;1.20;;;1.90;99.60;;;;;;5025800;28;20231;-81
2021/01/23 06:58:23;;;;;;;1.10;1.10;;;1.90;99.60;;;;;;5025995;28;20231;-80
2021/01/23 07:00:52;;;;;;;1.33;1.23;;;2.00;99.60;;;;;;5023005;28;20221;-78
2021/01/23 07:03:19;;;;;;;2.60;2.43;;;1.90;99.60;;;;;;5017664;28;20201;-78
2021/01/23 07:05:51;;;;;;;1.20;1.20;;;2.00;99.90;;;;;;5025987;28;20225;-81
2021/01/23 07:08:26;;;;;;;1.37;1.27;;;2.00;99.40;;;;;;5021260;28;20629;-81
2021/01/23 07:11:10;;;;;;;1.10;1.10;;;2.00;99.60;;;;;;5022342;28;20235;-82
2021/01/23 07:13:38;;;;;;;1.20;1.20;;;1.90;99.60;;;;;;5026205;28;20239;-78
2021/01/23 07:16:05;;;;;;;1.10;1.00;;;1.90;99.40;;;;;;5025986;28;20684;-82
2021/01/23 07:18:31;;;;;;;1.30;1.20;;;2.00;99.60;;;;;;5025777;28;20237;-78
2021/01/23 07:20:58;;;;;;;1.40;1.30;;;2.00;99.60;;;;;;5023423;28;20233;-78
2021/01/23 07:23:25;;;;;;;1.30;1.20;;;2.00;99.60;;;;;;5024752;28;20615;-78
2021/01/23 07:25:51;;;;;;;1.20;1.10;;;1.90;99.60;;;;;;5024139;28;20281;-76
2021/01/23 07:28:19;;;;;;;1.23;1.13;;;2.00;99.60;;;;;;5024862;28;20205;-80
2021/01/23 07:30:46;;;;;;;1.30;1.20;;;2.10;99.60;;;;;;5024698;28;20267;-79
2021/01/23 07:33:13;;;;;;;1.00;1.00;;;2.10;99.30;;;;;;5024076;28;20200;-79
2021/01/23 07:35:40;;;;;;;1.37;1.27;;;2.10;99.60;;;;;;5027374;28;20230;-83
2021/01/23 07:38:07;;;;;;;2.10;1.23;;;2.20;99.60;;;;;;5024830;28;20250;-80
2021/01/23 07:40:36;;;;;;;1.10;1.10;;;2.20;99.00;;;;;;5024247;28;20264;-85
2021/01/23 07:43:04;;;;;;;1.20;1.10;;;2.20;98.40;;;;;;5022151;28;20197;-77
2021/01/23 07:45:31;;;;;;;1.37;1.10;;;2.20;98.70;;;;;;5026498;28;20256;-77
2021/01/23 07:47:58;;;;;;;1.13;1.10;;;2.10;98.70;;;;;;5025577;28;20240;-84
2021/01/23 07:50:25;;;;;;;1.10;1.10;;;2.10;99.00;;;;;;5027394;28;20312;-77
2021/01/23 07:52:51;;;;;;;1.13;1.13;;;2.10;99.00;;;;;;5025575;28;20214;-79
2021/01/23 07:55:18;;;;;;;1.40;1.20;;;2.00;99.40;;;;;;5025528;28;20288;-80
2021/01/23 07:58:05;;;;;;;1.30;1.20;;;2.10;99.60;;;;;;5023760;28;20210;-78
2021/01/23 08:00:31;;;;;;;1.47;1.37;;;2.10;99.60;;;;;;5022334;28;20239;-77
2021/01/23 08:02:58;;;;;;;1.10;1.10;;;2.10;98.80;;;;;;5025080;28;20201;-78
2021/01/23 08:05:43;;;;;;;1.60;1.50;;;2.10;98.90;;;;;;5029768;28;20252;-82
2021/01/23 08:08:11;;;;;;;1.40;1.30;;;2.00;99.20;;;;;;5030164;28;20295;-77
2021/01/23 08:10:38;;;;;;;1.53;1.43;;;2.10;99.60;;;;;;5025969;28;20236;-80
2021/01/23 08:13:07;;;;;;;2.70;1.40;;;2.10;99.20;;;;;;5022033;28;20266;-77
2021/01/23 08:15:34;;;;;;;1.33;1.23;;;2.20;98.70;;;;;;5029984;28;20222;-80
2021/01/23 08:18:02;;;;;;;1.40;1.30;;;2.20;98.70;;;;;;5026395;28;20298;-77
2021/01/23 08:20:35;;;;;;;2.07;1.50;;;2.20;98.10;;;;;;5021918;28;20232;-84
2021/01/23 08:23:06;;;;;;;2.40;1.50;;;2.10;98.30;;;;;;5027726;28;20248;-79
2021/01/23 08:25:37;;;;;;;3.43;1.70;;;2.20;99.00;;;;;;5025360;28;20313;-81
2021/01/23 08:28:05;;;;;;;2.30;1.90;;;2.20;98.40;;;;;;5025383;28;20205;-80
2021/01/23 08:30:32;;;;;;;2.00;1.80;;;2.20;98.30;;;;;;5027808;28;20311;-78
2021/01/23 08:32:58;;;;;;;4.53;1.80;;;2.10;98.50;;;;;;5025574;28;20216;-76
2021/01/23 08:35:26;;;;;;;1.63;1.53;;;2.00;98.70;;;;;;5029540;28;20236;-77
2021/01/23 08:37:53;;;;;;;1.73;1.63;;;2.00;99.30;;;;;;5020126;28;20210;-77
2021/01/23 08:40:27;;;;;;;2.53;2.20;;;2.10;98.80;;;;;;5020885;28;20334;-77
2021/01/23 08:42:54;;;;;;;2.07;1.90;;;2.20;98.30;;;;;;5028367;28;20212;-78
2021/01/23 08:45:25;;;;;;;1.67;1.57;;;2.10;98.40;;;;;;5035958;28;20281;-78
2021/01/23 08:47:52;;;;;;;2.47;1.70;;;2.10;98.70;;;;;;5031950;28;20206;-79
2021/01/23 08:50:44;;;;;;;1.77;1.67;;;2.20;99.00;;;;;;5022999;28;20202;-78
2021/01/23 08:53:10;;;;;;;1.70;1.60;;;2.40;98.40;;;;;;5036169;28;20190;-78
2021/01/23 08:55:36;;;;;;;2.07;1.57;;;2.40;97.90;;;;;;5036540;28;20322;-78
2021/01/23 08:58:03;;;;;;;1.70;1.60;;;2.40;97.80;;;;;;5036906;28;20333;-78
2021/01/23 09:03:06;;;;;;;2.17;2.03;;;2.60;96.90;;;;;;5346037;22;20564;-78
2021/01/23 09:05:33;;;;;;;1.80;1.70;;;2.70;97.20;;;;;;5007268;28;20714;-81
2021/01/23 09:07:59;;;;;;;1.60;1.50;;;2.70;96.50;;;;;;5008687;28;20291;-77
2021/01/23 09:10:25;;;;;;;2.43;1.67;;;2.90;96.60;;;;;;5014828;28;20292;-79
2021/01/23 09:12:53;;;;;;;1.60;1.50;;;2.90;95.60;;;;;;5011446;28;20384;-78
2021/01/23 09:15:19;;;;;;;2.70;1.93;;;3.10;94.70;;;;;;5007550;28;20275;-78
2021/01/23 09:17:46;;;;;;;3.27;1.60;;;3.20;94.70;;;;;;5006893;28;20207;-78
2021/01/23 09:20:14;;;;;;;1.70;1.60;;;3.50;94.10;;;;;;5012523;28;20230;-79
2021/01/23 09:22:40;;;;;;;2.40;1.90;;;3.60;93.40;;;;;;5009069;28;20622;-80
2021/01/23 09:25:08;;;;;;;2.00;1.90;;;3.50;93.10;;;;;;5007410;28;20714;-78
2021/01/23 09:27:34;;;;;;;1.97;1.80;;;3.60;93.70;;;;;;5007730;28;20591;-82
2021/01/23 09:30:01;;;;;;;1.80;1.70;;;4.00;92.70;;;;;;5007445;28;20641;-81
2021/01/23 09:32:28;;;;;;;3.20;1.50;;;4.10;92.10;;;;;;5011358;28;20238;-78
2021/01/23 09:38:16;;;;;;;2.33;2.13;;;4.30;91.70;;;;;;5010743;28;20257;-79
2021/01/23 09:40:43;;;;;;;2.13;1.93;;;4.40;91.60;;;;;;5005003;28;20253;-79
2021/01/23 09:43:09;;;;;;;1.97;1.73;;;4.30;91.80;;;;;;5007838;28;20291;-76
2021/01/23 09:45:35;;;;;;;2.23;1.97;;;4.40;91.00;;;;;;5004336;28;20256;-81
2021/01/23 09:48:02;;;;;;;3.07;2.07;;;4.30;90.60;;;;;;5007157;28;20210;-82
2021/01/23 09:50:33;;;;;;;3.03;1.90;;;4.20;90.80;;;;;;5007476;28;20225;-78
2021/01/23 09:52:59;;;;;;;1.87;1.77;;;4.10;92.00;;;;;;5007370;28;20207;-79
2021/01/23 09:55:27;;;;;;;1.97;1.80;;;4.10;91.90;;;;;;5007782;28;20310;-79
2021/01/23 09:57:53;;;;;;;2.13;1.93;;;4.10;90.90;;;;;;5010056;28;20282;-84
2021/01/23 10:00:20;;;;;;;2.30;2.10;;;4.00;91.30;;;;;;5006237;28;20229;-84
2021/01/23 10:02:47;;;;;;;2.10;1.90;;;4.00;91.50;;;;;;5009274;28;20965;-84
2021/01/23 10:05:14;;;;;;;2.20;2.00;;;3.90;91.50;;;;;;4997356;28;20253;-79
2021/01/23 10:07:41;;;;;;;2.10;2.00;;;3.90;91.10;;;;;;5005481;28;20725;-86
2021/01/23 10:10:09;;;;;;;2.40;2.20;;;3.90;91.40;;;;;;5004249;28;20634;-87
2021/01/23 10:12:36;;;;;;;2.07;1.90;;;3.80;91.40;;;;;;5008811;28;20202;-81
2021/01/23 10:15:03;;;;;;;2.47;1.87;;;3.80;91.90;;;;;;5003488;28;20286;-89
2021/01/23 10:17:30;;;;;;;2.27;2.07;;;3.80;92.50;;;;;;5001346;28;20200;-85
2021/01/23 10:19:56;;;;;;;2.53;2.20;;;3.80;91.50;;;;;;5006688;28;20261;-86
2021/01/23 10:22:23;;;;;;;2.63;2.20;;;4.00;91.90;;;;;;5004806;28;20225;-89
2021/01/23 10:24:51;;;;;;;3.23;2.10;;;4.20;91.60;;;;;;5001949;28;20664;-91
2021/01/23 10:27:17;;;;;;;1.90;1.80;;;4.40;91.10;;;;;;4992028;28;20224;-85
2021/01/23 10:29:47;;;;;;;2.30;2.00;;;4.50;90.80;;;;;;4997824;28;20203;-82
2021/01/23 10:32:17;;;;;;;3.27;2.37;;;4.70;90.40;;;;;;5000551;28;20610;-86
2021/01/23 10:34:43;;;;;;;4.10;2.67;;;4.90;90.30;;;;;;5011367;28;20749;-89
2021/01/23 10:37:09;;;;;;;2.57;2.20;;;5.00;90.10;;;;;;5014232;28;20223;-82
2021/01/23 10:39:39;;;;;;;2.43;2.23;;;5.20;89.10;;;;;;5004649;28;20242;-83
2021/01/23 10:42:06;;;;;;;4.30;2.20;;;5.50;85.70;;;;;;5001410;28;20231;-84
2021/01/23 10:47:55;;;;;;;2.67;2.17;;;5.60;85.50;;;;;;5007570;28;20271;-88
2021/01/23 10:50:21;;;;;;;3.93;2.30;;;5.70;85.20;;;;;;5005218;28;20286;-88
2021/01/23 10:52:48;;;;;;;4.00;2.50;;;5.70;83.80;;;;;;5010643;28;20262;-87
2021/01/23 10:55:14;;;;;;;3.53;2.87;;;5.50;83.20;;;;;;5006063;28;20238;-85
2021/01/23 10:57:49;;;;;;;2.43;2.23;;;5.20;85.40;;;;;;5012773;28;20195;-84
2021/01/23 11:00:16;;;;;;;4.30;2.40;;;5.10;87.90;;;;;;5031846;22;20338;-84
2021/01/23 11:02:43;;;;;;;3.00;2.70;;;5.30;87.60;;;;;;5009855;28;20225;-85
2021/01/23 11:05:12;;;;;;;2.50;2.30;;;5.50;87.00;;;;;;5013510;28;20207;-83
2021/01/23 11:07:38;;;;;;;3.10;2.40;;;5.70;84.80;;;;;;5011114;28;20206;-83
2021/01/23 11:10:06;;;;;;;3.67;2.70;;;5.70;85.80;;;;;;5009806;28;20203;-84
2021/01/23 11:12:33;;;;;;;3.27;2.20;;;5.70;84.90;;;;;;5013591;28;20206;-84
2021/01/23 11:15:00;;;;;;;2.97;2.50;;;5.80;83.40;;;;;;5011472;28;20207;-86
2021/01/23 11:17:26;;;;;;;2.87;2.60;;;5.70;82.70;;;;;;5011505;28;20233;-88
2021/01/23 11:19:52;;;;;;;8.07;5.87;;;5.60;83.70;;;;;;5009459;28;20229;-82
2021/01/23 11:22:20;;;;;;;9.87;6.60;;;5.70;85.90;;;;;;5011409;28;20225;-85
2021/01/23 11:24:46;;;;;;;18.67;12.17;;;5.80;84.70;;;;;;5011609;28;20203;-84
2021/01/23 11:27:12;;;;;;;7.53;4.43;;;6.10;83.40;;;;;;5012784;28;20306;-83
2021/01/23 11:29:39;;;;;;;6.23;4.73;;;6.10;82.00;;;;;;5004604;28;20266;-84
2021/01/23 11:32:06;;;;;;;10.90;8.30;;;6.30;80.20;;;;;;5008263;28;20296;-83
2021/01/23 11:34:32;;;;;;;4.63;2.73;;;6.40;81.10;;;;;;5002472;28;20207;-83
2021/01/23 11:36:58;;;;;;;10.63;6.63;;;6.40;79.60;;;;;;5000963;28;20329;-83
2021/01/23 11:39:26;;;;;;;3.97;3.13;;;6.60;81.50;;;;;;5007970;28;20237;-81
2021/01/23 11:41:52;;;;;;;2.83;2.63;;;6.70;78.60;;;;;;5003969;28;20231;-82
2021/01/23 11:44:18;;;;;;;5.00;3.67;;;6.40;77.50;;;;;;5011088;28;20562;-82
2021/01/23 11:46:46;;;;;;;10.50;3.50;;;6.20;80.60;;;;;;5010884;28;20536;-81
2021/01/23 11:49:12;;;;;;;3.97;3.33;;;6.40;80.40;;;;;;5012647;28;20210;-83
2021/01/23 11:51:38;;;;;;;3.83;2.70;;;6.60;79.40;;;;;;5011582;28;20938;-87
2021/01/23 11:54:05;;;;;;;3.20;2.50;;;6.60;77.30;;;;;;5013212;28;20275;-83
2021/01/23 11:56:33;;;;;;;3.90;2.70;;;6.50;77.50;;;;;;5019077;28;20219;-83
2021/01/23 11:58:59;;;;;;;3.30;2.33;;;6.40;78.50;;;;;;5017728;28;20317;-81
2021/01/23 12:01:25;;;;;;;3.87;2.57;;;6.30;78.90;;;;;;5000280;28;20305;-83
2021/01/23 12:03:52;;;;;;;3.17;2.60;;;6.10;79.40;;;;;;5009681;28;20238;-82
2021/01/23 12:06:18;;;;;;;4.20;2.53;;;6.00;81.10;;;;;;5008488;28;20315;-81
2021/01/23 12:08:44;;;;;;;3.17;2.63;;;6.00;79.70;;;;;;5001262;28;20261;-85
2021/01/23 12:11:11;;;;;;;3.47;2.70;;;6.10;80.10;;;;;;5006593;28;20769;-84
2021/01/23 12:13:38;;;;;;;2.80;2.33;;;6.30;80.10;;;;;;5006370;28;20299;-86
2021/01/23 12:16:05;;;;;;;3.23;2.10;;;6.20;79.30;;;;;;5008461;28;20239;-83
2021/01/23 12:18:31;;;;;;;4.10;2.53;;;6.30;80.40;;;;;;5002522;28;20222;-88
2021/01/23 12:20:58;;;;;;;3.23;2.93;;;6.40;78.70;;;;;;4996640;28;20321;-85
2021/01/23 12:23:24;;;;;;;3.00;2.67;;;6.30;78.70;;;;;;5003148;28;20496;-86
2021/01/23 12:25:50;;;;;;;3.57;2.77;;;6.40;78.00;;;;;;5001149;28;20311;-85
2021/01/23 12:28:17;;;;;;;3.03;2.70;;;6.10;79.70;;;;;;5006554;28;20574;-89
2021/01/23 12:30:44;;;;;;;3.17;2.60;;;6.30;80.50;;;;;;4998915;28;20836;-85
2021/01/23 12:33:10;;;;;;;3.20;2.53;;;6.20;80.40;;;;;;5003399;28;20283;-85
2021/01/23 12:35:37;;;;;;;3.33;2.50;;;6.40;75.90;;;;;;4999822;28;20719;-87
2021/01/23 12:38:03;;;;;;;3.43;2.20;;;6.20;76.90;;;;;;4998292;28;20294;-87
2021/01/23 12:40:30;;;;;;;2.93;2.40;;;6.30;77.30;;;;;;4995845;28;20612;-85
2021/01/23 12:42:56;;;;;;;2.70;2.50;;;6.20;77.80;;;;;;5003307;28;20500;-82
2021/01/23 12:45:23;;;;;;;2.87;2.67;;;6.20;77.80;;;;;;5003959;28;20286;-83
2021/01/23 12:47:51;;;;;;;3.67;2.80;;;6.10;79.70;;;;;;4994119;28;20204;-82
2021/01/23 12:50:18;;;;;;;3.57;3.27;;;6.00;79.40;;;;;;4994075;28;20233;-88
2021/01/23 12:52:44;;;;;;;3.60;2.20;;;6.10;78.80;;;;;;4996853;28;20203;-88
2021/01/23 12:55:11;;;;;;;4.27;3.10;;;6.00;77.00;;;;;;4998687;28;20199;-83
2021/01/23 12:57:38;;;;;;;2.40;2.20;;;6.00;77.90;;;;;;4994005;28;20204;-89
2021/01/23 13:00:06;;;;;;;3.60;2.70;;;5.90;79.30;;;;;;4995419;28;20703;-84
2021/01/23 13:02:33;;;;;;;2.63;2.40;;;6.10;77.90;;;;;;4985548;28;20671;-87
2021/01/23 13:05:00;;;;;;;3.10;2.80;;;6.20;78.10;;;;;;4999688;28;20211;-89
2021/01/23 13:07:26;;;;;;;2.63;2.17;;;6.30;77.20;;;;;;4998350;28;20227;-86
2021/01/23 13:09:52;;;;;;;3.63;2.57;;;6.10;76.40;;;;;;4999776;28;20204;-84
2021/01/23 13:12:19;;;;;;;3.17;2.87;;;6.10;77.40;;;;;;4994772;28;20334;-88
2021/01/23 13:14:47;;;;;;;3.47;2.67;;;6.00;79.10;;;;;;4998424;28;20203;-92
2021/01/23 13:17:14;;;;;;;2.97;2.60;;;6.00;77.70;;;;;;4994568;28;20227;-84
2021/01/23 13:19:40;;;;;;;2.90;2.43;;;5.90;77.60;;;;;;4997769;28;20223;-84
2021/01/23 13:22:07;;;;;;;2.30;2.10;;;5.80;76.90;;;;;;5000212;28;20306;-82
2021/01/23 13:24:33;;;;;;;2.50;2.30;;;5.70;78.10;;;;;;4998940;28;20503;-84
2021/01/23 13:27:00;;;;;;;3.30;2.30;;;5.60;79.70;;;;;;4999190;28;20370;-82
2021/01/23 13:29:26;;;;;;;2.30;2.10;;;5.70;79.10;;;;;;5002620;28;20290;-89
2021/01/23 13:31:53;;;;;;;3.23;2.10;;;5.70;78.50;;;;;;5005356;28;20251;-82
2021/01/23 13:34:26;;;;;;;2.97;2.40;;;5.60;79.40;;;;;;4999703;28;20204;-84
2021/01/23 13:36:52;;;;;;;2.47;2.27;;;5.70;80.40;;;;;;5002202;28;20227;-86
2021/01/23 13:39:20;;;;;;;3.43;2.30;;;5.70;79.80;;;;;;5007284;28;20370;-87
2021/01/23 13:41:47;;;;;;;3.17;2.70;;;5.70;80.20;;;;;;4990720;28;20211;-83
2021/01/23 13:44:14;;;;;;;3.63;2.47;;;5.80;80.40;;;;;;5001277;28;20203;-88
2021/01/23 13:46:42;;;;;;;2.77;2.50;;;5.80;80.00;;;;;;5000331;28;20918;-85
2021/01/23 13:49:08;;;;;;;2.53;2.13;;;5.90;79.00;;;;;;5002083;28;20207;-87
2021/01/23 13:51:34;;;;;;;3.97;2.43;;;5.80;78.50;;;;;;4995002;28;20234;-87
2021/01/23 13:54:01;;;;;;;3.13;2.20;;;5.80;79.10;;;;;;4999782;28;20200;-86
2021/01/23 13:56:28;;;;;;;3.30;2.70;;;5.80;78.70;;;;;;4999430;28;20231;-82
2021/01/23 14:01:35;;;;;;;2.50;2.30;;;5.70;78.90;;;;;;5046066;22;20243;-88
2021/01/23 14:04:02;;;;;;;3.43;2.20;;;5.70;79.30;;;;;;4997657;28;20211;-86
2021/01/23 14:06:28;;;;;;;2.40;2.10;;;5.70;79.70;;;;;;4994895;28;20219;-85
2021/01/23 14:08:55;;;;;;;2.70;2.50;;;5.60;79.40;;;;;;4988896;28;20215;-86
2021/01/23 14:11:21;;;;;;;3.90;2.67;;;5.50;80.50;;;;;;4998763;28;20764;-85
2021/01/23 14:13:48;;;;;;;2.57;2.20;;;5.60;78.10;;;;;;4994858;28;20254;-83
2021/01/23 14:16:15;;;;;;;2.30;2.10;;;5.50;79.10;;;;;;4994971;28;20274;-82
2021/01/23 14:18:42;;;;;;;4.20;2.67;;;5.60;77.80;;;;;;4996077;28;20208;-81
2021/01/23 14:21:08;;;;;;;2.50;2.27;;;5.60;78.50;;;;;;4998376;28;20232;-84
2021/01/23 14:23:35;;;;;;;2.60;2.30;;;5.70;79.00;;;;;;4998717;28;20538;-81
2021/01/23 14:26:02;;;;;;;3.73;2.60;;;5.60;78.50;;;;;;4998087;28;20230;-85
2021/01/23 14:28:29;;;;;;;4.53;2.20;;;5.60;79.50;;;;;;4990076;28;20200;-83
2021/01/23 14:30:56;;;;;;;5.17;2.70;;;5.70;78.80;;;;;;4981618;28;20235;-82
2021/01/23 14:33:23;;;;;;;3.50;3.20;;;5.70;78.10;;;;;;4990546;28;20204;-84
2021/01/23 14:35:50;;;;;;;3.60;2.97;;;5.80;77.90;;;;;;4982403;28;20251;-83
2021/01/23 14:38:16;;;;;;;4.97;2.93;;;5.80;78.90;;;;;;4987879;28;20196;-84
2021/01/23 14:40:43;;;;;;;3.20;2.90;;;5.80;79.00;;;;;;4986753;28;20265;-84
2021/01/23 14:43:09;;;;;;;3.17;2.87;;;5.80;78.70;;;;;;4989718;28;20204;-82
2021/01/23 14:45:36;;;;;;;4.20;3.00;;;5.80;79.40;;;;;;4988389;28;20227;-81
2021/01/23 14:48:04;;;;;;;3.90;3.00;;;5.80;79.20;;;;;;4987881;28;20287;-85
2021/01/23 14:50:32;;;;;;;4.40;3.03;;;5.70;78.90;;;;;;4994458;28;20270;-83
2021/01/23 14:52:59;;;;;;;3.97;3.20;;;5.60;78.90;;;;;;4990773;28;20425;-82
2021/01/23 14:55:25;;;;;;;5.10;2.90;;;5.60;80.10;;;;;;4992581;28;20845;-79
2021/01/23 14:57:51;;;;;;;4.80;2.83;;;5.60;79.20;;;;;;4988804;28;20214;-87
2021/01/23 15:00:18;;;;;;;4.20;3.10;;;5.50;79.80;;;;;;4986830;28;20227;-81
2021/01/23 15:02:45;;;;;;;3.20;2.90;;;5.50;79.80;;;;;;4985867;28;20235;-84
2021/01/23 15:05:13;;;;;;;4.47;3.23;;;5.50;80.20;;;;;;4986950;28;20204;-82
2021/01/23 15:07:40;;;;;;;4.47;3.17;;;5.50;80.10;;;;;;4983894;28;20201;-83
2021/01/23 15:10:08;;;;;;;5.10;3.13;;;5.50;81.20;;;;;;4986893;28;20291;-86
2021/01/23 15:12:34;;;;;;;4.63;3.13;;;5.40;81.80;;;;;;4984188;28;20575;-82
2021/01/23 15:15:03;;;;;;;4.73;3.60;;;5.30;82.00;;;;;;4985131;28;20256;-83
2021/01/23 15:17:29;;;;;;;5.00;2.93;;;5.20;82.80;;;;;;4986955;28;20678;-84
2021/01/23 15:19:55;;;;;;;4.53;3.20;;;5.20;83.00;;;;;;4988374;28;20228;-83
2021/01/23 15:22:23;;;;;;;3.93;3.20;;;5.20;83.10;;;;;;4986397;28;20442;-83
2021/01/23 15:24:49;;;;;;;4.17;3.43;;;5.10;83.50;;;;;;4988681;28;20204;-82
2021/01/23 15:27:16;;;;;;;5.10;3.80;;;5.10;83.90;;;;;;4990247;28;20254;-85
2021/01/23 15:29:42;;;;;;;8.73;6.03;;;5.00;84.20;;;;;;4982335;28;20367;-83
2021/01/23 15:32:09;;;;;;;6.00;3.77;;;5.00;83.60;;;;;;4985500;28;20222;-79
2021/01/23 15:34:37;;;;;;;8.07;3.87;;;4.90;84.60;;;;;;4988142;28;20203;-85
2021/01/23 15:37:03;;;;;;;5.40;4.53;;;4.90;84.30;;;;;;4988007;28;20227;-83
2021/01/23 15:39:30;;;;;;;8.73;5.23;;;4.80;85.00;;;;;;4990651;28;20220;-80
2021/01/23 15:41:57;;;;;;;7.17;5.07;;;4.90;85.10;;;;;;4990692;28;20224;-90
2021/01/23 15:44:23;;;;;;;10.73;6.70;;;4.80;86.00;;;;;;4988524;28;20196;-81
2021/01/23 15:46:51;;;;;;;9.43;6.50;;;4.80;85.60;;;;;;4986721;28;20838;-80
2021/01/23 15:49:17;;;;;;;10.50;6.97;;;4.80;86.20;;;;;;4986922;28;20223;-83
2021/01/23 15:51:44;;;;;;;9.57;6.40;;;4.70;87.00;;;;;;4991371;28;20597;-80
2021/01/23 15:54:10;;;;;;;10.00;6.73;;;4.70;87.10;;;;;;4995309;28;20648;-80
2021/01/23 15:56:37;;;;;;;8.10;6.30;;;4.60;88.70;;;;;;4989993;28;20306;-81
2021/01/23 15:59:03;;;;;;;9.83;5.77;;;4.50;88.70;;;;;;4990897;28;20315;-82
2021/01/23 16:01:30;;;;;;;5.73;4.90;;;4.40;88.60;;;;;;4990653;28;20245;-83
2021/01/23 16:03:57;;;;;;;6.30;4.80;;;4.40;88.60;;;;;;4996566;28;20197;-81
2021/01/23 16:06:23;;;;;;;6.03;4.87;;;4.40;88.60;;;;;;4991619;28;20300;-80
2021/01/23 16:08:50;;;;;;;8.40;6.17;;;4.30;89.80;;;;;;4986751;28;20218;-81
2021/01/23 16:11:16;;;;;;;11.17;5.70;;;4.30;90.20;;;;;;4979126;28;20311;-83
2021/01/23 16:13:45;;;;;;;6.93;5.20;;;4.20;90.40;;;;;;4981639;28;20668;-81
2021/01/23 16:16:13;;;;;;;6.03;4.83;;;4.30;90.00;;;;;;4985364;28;20219;-82
2021/01/23 16:18:40;;;;;;;7.90;4.77;;;4.30;89.20;;;;;;4993304;28;20201;-80
2021/01/23 16:21:06;;;;;;;6.10;4.83;;;4.20;89.90;;;;;;4993344;28;20242;-86
2021/01/23 16:23:33;;;;;;;7.97;5.00;;;4.10;90.00;;;;;;4994655;28;20200;-82
2021/01/23 16:25:59;;;;;;;6.53;5.00;;;4.10;90.00;;;;;;4998318;28;20265;-84
2021/01/23 16:28:26;;;;;;;7.60;5.63;;;4.20;89.70;;;;;;4995201;28;20200;-81
2021/01/23 16:30:56;;;;;;;6.73;5.47;;;4.10;90.10;;;;;;4985767;28;20240;-87
2021/01/23 16:33:23;;;;;;;9.07;5.40;;;4.10;90.10;;;;;;4982551;28;20319;-79